sensor_id;sensor_type;location;lat;lon;timestamp;P1;durP1;ratioP1;P2;durP2;ratioP2
39018;SDS011;24786;51.984;5.872;2023-03-01T00:01:15;7.07;;;4.23;;
39018;SDS011;24786;51.984;5.872;2023-03-01T00:03:43;6.00;;;4.33;;
39018;SDS011;24786;51.984;5.872;2023-03-01T00:06:09;13.10;;;4.73;;
39018;SDS011;24786;51.984;5.872;2023-03-01T00:08:35;7.40;;;5.00;;
39018;SDS011;24786;51.984;5.872;2023-03-01T00:13:35;9.03;;;5.17;;
39018;SDS011;24786;51.984;5.872;2023-03-01T00:16:02;6.93;;;4.60;;
39018;SDS011;24786;51.984;5.872;2023-03-01T00:18:28;6.40;;;4.30;;
39018;SDS011;24786;51.984;5.872;2023-03-01T00:20:55;9.70;;;4.90;;
39018;SDS011;24786;51.984;5.872;2023-03-01T00:23:21;6.97;;;4.07;;
39018;SDS011;24786;51.984;5.872;2023-03-01T00:25:47;9.77;;;5.53;;
39018;SDS011;24786;51.984;5.872;2023-03-01T00:28:13;10.47;;;4.87;;
39018;SDS011;24786;51.984;5.872;2023-03-01T00:30:39;8.30;;;5.50;;
39018;SDS011;24786;51.984;5.872;2023-03-01T00:33:04;8.07;;;5.10;;
39018;SDS011;24786;51.984;5.872;2023-03-01T00:35:31;11.70;;;5.63;;
39018;SDS011;24786;51.984;5.872;2023-03-01T00:37:57;13.23;;;5.60;;
39018;SDS011;24786;51.984;5.872;2023-03-01T00:40:24;6.77;;;4.90;;
39018;SDS011;24786;51.984;5.872;2023-03-01T00:42:50;7.33;;;4.97;;
39018;SDS011;24786;51.984;5.872;2023-03-01T00:45:16;9.63;;;6.03;;
39018;SDS011;24786;51.984;5.872;2023-03-01T00:47:42;9.37;;;5.50;;
39018;SDS011;24786;51.984;5.872;2023-03-01T00:50:08;10.03;;;5.80;;
39018;SDS011;24786;51.984;5.872;2023-03-01T00:52:34;10.63;;;5.87;;
39018;SDS011;24786;51.984;5.872;2023-03-01T00:55:00;10.30;;;5.70;;
39018;SDS011;24786;51.984;5.872;2023-03-01T00:57:25;7.57;;;5.40;;
39018;SDS011;24786;51.984;5.872;2023-03-01T00:59:51;8.97;;;5.80;;
39018;SDS011;24786;51.984;5.872;2023-03-01T01:02:17;9.43;;;5.73;;
39018;SDS011;24786;51.984;5.872;2023-03-01T01:04:43;9.93;;;6.03;;
39018;SDS011;24786;51.984;5.872;2023-03-01T01:07:09;6.57;;;4.43;;
39018;SDS011;24786;51.984;5.872;2023-03-01T01:09:35;9.10;;;5.30;;
39018;SDS011;24786;51.984;5.872;2023-03-01T01:12:01;8.80;;;5.90;;
39018;SDS011;24786;51.984;5.872;2023-03-01T01:14:27;9.80;;;5.93;;
39018;SDS011;24786;51.984;5.872;2023-03-01T01:16:53;10.50;;;7.10;;
39018;SDS011;24786;51.984;5.872;2023-03-01T01:19:19;8.63;;;5.50;;
39018;SDS011;24786;51.984;5.872;2023-03-01T01:21:44;10.33;;;5.53;;
39018;SDS011;24786;51.984;5.872;2023-03-01T01:24:11;13.90;;;6.30;;
39018;SDS011;24786;51.984;5.872;2023-03-01T01:26:37;8.70;;;5.73;;
39018;SDS011;24786;51.984;5.872;2023-03-01T01:29:03;12.53;;;6.80;;
39018;SDS011;24786;51.984;5.872;2023-03-01T01:31:30;12.27;;;7.07;;
39018;SDS011;24786;51.984;5.872;2023-03-01T01:33:57;10.23;;;6.43;;
39018;SDS011;24786;51.984;5.872;2023-03-01T01:36:24;12.17;;;6.83;;
39018;SDS011;24786;51.984;5.872;2023-03-01T01:38:50;12.00;;;6.93;;
39018;SDS011;24786;51.984;5.872;2023-03-01T01:41:16;10.97;;;6.20;;
39018;SDS011;24786;51.984;5.872;2023-03-01T01:43:44;9.27;;;6.03;;
39018;SDS011;24786;51.984;5.872;2023-03-01T01:48:50;13.13;;;7.10;;
39018;SDS011;24786;51.984;5.872;2023-03-01T01:51:21;9.63;;;6.97;;
39018;SDS011;24786;51.984;5.872;2023-03-01T01:53:51;11.97;;;7.47;;
39018;SDS011;24786;51.984;5.872;2023-03-01T01:56:20;10.10;;;6.50;;
39018;SDS011;24786;51.984;5.872;2023-03-01T01:58:48;9.77;;;6.53;;
39018;SDS011;24786;51.984;5.872;2023-03-01T02:01:14;12.40;;;6.93;;
39018;SDS011;24786;51.984;5.872;2023-03-01T02:03:40;11.90;;;5.60;;
39018;SDS011;24786;51.984;5.872;2023-03-01T02:08:35;10.97;;;7.10;;
39018;SDS011;24786;51.984;5.872;2023-03-01T02:11:04;10.23;;;6.47;;
39018;SDS011;24786;51.984;5.872;2023-03-01T02:13:31;10.50;;;6.30;;
39018;SDS011;24786;51.984;5.872;2023-03-01T02:15:57;11.37;;;7.33;;
39018;SDS011;24786;51.984;5.872;2023-03-01T02:18:23;11.97;;;5.73;;
39018;SDS011;24786;51.984;5.872;2023-03-01T02:23:21;9.33;;;6.60;;
39018;SDS011;24786;51.984;5.872;2023-03-01T02:28:50;10.37;;;6.53;;
39018;SDS011;24786;51.984;5.872;2023-03-01T02:31:16;14.97;;;6.97;;
39018;SDS011;24786;51.984;5.872;2023-03-01T02:34:02;11.00;;;7.00;;
39018;SDS011;24786;51.984;5.872;2023-03-01T02:36:31;10.93;;;6.90;;
39018;SDS011;24786;51.984;5.872;2023-03-01T02:39:00;10.53;;;6.77;;
39018;SDS011;24786;51.984;5.872;2023-03-01T02:41:30;9.40;;;5.67;;
39018;SDS011;24786;51.984;5.872;2023-03-01T02:44:00;12.37;;;6.90;;
39018;SDS011;24786;51.984;5.872;2023-03-01T02:46:26;10.97;;;6.67;;
39018;SDS011;24786;51.984;5.872;2023-03-01T02:48:55;11.63;;;7.43;;
39018;SDS011;24786;51.984;5.872;2023-03-01T02:54:10;8.93;;;6.13;;
39018;SDS011;24786;51.984;5.872;2023-03-01T02:56:46;8.80;;;6.20;;
39018;SDS011;24786;51.984;5.872;2023-03-01T02:59:19;11.23;;;6.80;;
39018;SDS011;24786;51.984;5.872;2023-03-01T03:01:47;9.63;;;6.60;;
39018;SDS011;24786;51.984;5.872;2023-03-01T03:04:14;10.33;;;6.83;;
39018;SDS011;24786;51.984;5.872;2023-03-01T03:06:45;10.00;;;6.03;;
39018;SDS011;24786;51.984;5.872;2023-03-01T03:09:12;11.33;;;6.80;;
39018;SDS011;24786;51.984;5.872;2023-03-01T03:11:39;8.37;;;6.20;;
39018;SDS011;24786;51.984;5.872;2023-03-01T03:14:06;10.83;;;7.00;;
39018;SDS011;24786;51.984;5.872;2023-03-01T03:16:37;8.63;;;5.23;;
39018;SDS011;24786;51.984;5.872;2023-03-01T03:19:10;11.90;;;6.37;;
39018;SDS011;24786;51.984;5.872;2023-03-01T03:21:37;11.70;;;6.43;;
39018;SDS011;24786;51.984;5.872;2023-03-01T03:24:03;11.03;;;6.33;;
39018;SDS011;24786;51.984;5.872;2023-03-01T03:26:29;12.23;;;6.40;;
39018;SDS011;24786;51.984;5.872;2023-03-01T03:28:55;9.57;;;6.60;;
39018;SDS011;24786;51.984;5.872;2023-03-01T03:31:21;9.37;;;5.83;;
39018;SDS011;24786;51.984;5.872;2023-03-01T03:33:46;17.93;;;6.53;;
39018;SDS011;24786;51.984;5.872;2023-03-01T03:36:16;10.20;;;5.73;;
39018;SDS011;24786;51.984;5.872;2023-03-01T03:38:44;10.90;;;6.70;;
39018;SDS011;24786;51.984;5.872;2023-03-01T03:43:40;9.70;;;5.53;;
39018;SDS011;24786;51.984;5.872;2023-03-01T03:46:08;10.80;;;6.20;;
39018;SDS011;24786;51.984;5.872;2023-03-01T03:48:36;8.63;;;6.17;;
39018;SDS011;24786;51.984;5.872;2023-03-01T03:51:06;11.87;;;6.83;;
39018;SDS011;24786;51.984;5.872;2023-03-01T03:53:35;10.13;;;6.23;;
39018;SDS011;24786;51.984;5.872;2023-03-01T03:56:00;10.83;;;5.77;;
39018;SDS011;24786;51.984;5.872;2023-03-01T03:58:26;12.40;;;6.63;;
39018;SDS011;24786;51.984;5.872;2023-03-01T04:00:53;10.20;;;6.10;;
39018;SDS011;24786;51.984;5.872;2023-03-01T04:03:24;7.93;;;5.43;;
39018;SDS011;24786;51.984;5.872;2023-03-01T04:05:51;9.77;;;6.30;;
39018;SDS011;24786;51.984;5.872;2023-03-01T04:08:18;9.43;;;5.80;;
39018;SDS011;24786;51.984;5.872;2023-03-01T04:10:46;8.73;;;5.93;;
39018;SDS011;24786;51.984;5.872;2023-03-01T04:13:14;8.83;;;5.70;;
39018;SDS011;24786;51.984;5.872;2023-03-01T04:15:46;11.37;;;6.43;;
39018;SDS011;24786;51.984;5.872;2023-03-01T04:18:14;12.87;;;5.70;;
39018;SDS011;24786;51.984;5.872;2023-03-01T04:20:41;8.80;;;5.60;;
39018;SDS011;24786;51.984;5.872;2023-03-01T04:23:09;8.40;;;5.87;;
39018;SDS011;24786;51.984;5.872;2023-03-01T04:25:41;12.27;;;6.37;;
39018;SDS011;24786;51.984;5.872;2023-03-01T04:28:11;9.37;;;6.03;;
39018;SDS011;24786;51.984;5.872;2023-03-01T04:30:37;11.87;;;6.30;;
39018;SDS011;24786;51.984;5.872;2023-03-01T04:33:07;11.00;;;5.97;;
39018;SDS011;24786;51.984;5.872;2023-03-01T04:35:34;11.30;;;6.07;;
39018;SDS011;24786;51.984;5.872;2023-03-01T04:38:01;9.67;;;5.90;;
39018;SDS011;24786;51.984;5.872;2023-03-01T04:40:27;10.53;;;5.93;;
39018;SDS011;24786;51.984;5.872;2023-03-01T04:42:53;10.23;;;6.47;;
39018;SDS011;24786;51.984;5.872;2023-03-01T04:45:19;10.50;;;6.37;;
39018;SDS011;24786;51.984;5.872;2023-03-01T04:47:45;10.60;;;5.60;;
39018;SDS011;24786;51.984;5.872;2023-03-01T04:50:12;8.10;;;5.17;;
39018;SDS011;24786;51.984;5.872;2023-03-01T04:52:42;7.07;;;4.30;;
39018;SDS011;24786;51.984;5.872;2023-03-01T04:55:09;10.53;;;6.00;;
39018;SDS011;24786;51.984;5.872;2023-03-01T04:57:35;8.03;;;5.13;;
39018;SDS011;24786;51.984;5.872;2023-03-01T05:00:01;12.80;;;5.97;;
39018;SDS011;24786;51.984;5.872;2023-03-01T05:02:44;10.10;;;6.00;;
39018;SDS011;24786;51.984;5.872;2023-03-01T05:07:55;12.90;;;6.67;;
39018;SDS011;24786;51.984;5.872;2023-03-01T05:10:22;11.30;;;7.00;;
39018;SDS011;24786;51.984;5.872;2023-03-01T05:12:49;11.30;;;6.30;;
39018;SDS011;24786;51.984;5.872;2023-03-01T05:15:14;12.43;;;5.67;;
39018;SDS011;24786;51.984;5.872;2023-03-01T05:17:40;10.43;;;6.37;;
39018;SDS011;24786;51.984;5.872;2023-03-01T05:20:06;11.83;;;6.37;;
39018;SDS011;24786;51.984;5.872;2023-03-01T05:22:35;9.43;;;6.03;;
39018;SDS011;24786;51.984;5.872;2023-03-01T05:25:01;10.80;;;5.93;;
39018;SDS011;24786;51.984;5.872;2023-03-01T05:27:26;10.93;;;6.43;;
39018;SDS011;24786;51.984;5.872;2023-03-01T05:29:52;8.97;;;5.63;;
39018;SDS011;24786;51.984;5.872;2023-03-01T05:32:18;9.23;;;5.23;;
39018;SDS011;24786;51.984;5.872;2023-03-01T05:34:43;13.87;;;6.80;;
39018;SDS011;24786;51.984;5.872;2023-03-01T05:37:11;7.03;;;5.00;;
39018;SDS011;24786;51.984;5.872;2023-03-01T05:39:37;13.67;;;5.83;;
39018;SDS011;24786;51.984;5.872;2023-03-01T05:42:02;9.07;;;5.87;;
39018;SDS011;24786;51.984;5.872;2023-03-01T05:44:28;10.07;;;6.33;;
39018;SDS011;24786;51.984;5.872;2023-03-01T05:46:55;10.73;;;5.70;;
39018;SDS011;24786;51.984;5.872;2023-03-01T05:49:21;11.67;;;5.80;;
39018;SDS011;24786;51.984;5.872;2023-03-01T05:51:49;10.43;;;6.17;;
39018;SDS011;24786;51.984;5.872;2023-03-01T05:54:16;9.57;;;5.40;;
39018;SDS011;24786;51.984;5.872;2023-03-01T05:56:43;9.33;;;6.03;;
39018;SDS011;24786;51.984;5.872;2023-03-01T05:59:09;11.00;;;6.40;;
39018;SDS011;24786;51.984;5.872;2023-03-01T06:01:36;11.03;;;6.37;;
39018;SDS011;24786;51.984;5.872;2023-03-01T06:04:02;13.40;;;5.60;;
39018;SDS011;24786;51.984;5.872;2023-03-01T06:06:28;10.73;;;6.40;;
39018;SDS011;24786;51.984;5.872;2023-03-01T06:08:53;19.10;;;6.93;;
39018;SDS011;24786;51.984;5.872;2023-03-01T06:11:19;11.70;;;5.97;;
39018;SDS011;24786;51.984;5.872;2023-03-01T06:13:46;9.10;;;5.57;;
39018;SDS011;24786;51.984;5.872;2023-03-01T06:16:12;11.17;;;6.07;;
39018;SDS011;24786;51.984;5.872;2023-03-01T06:18:38;13.07;;;6.53;;
39018;SDS011;24786;51.984;5.872;2023-03-01T06:21:05;8.00;;;5.80;;
39018;SDS011;24786;51.984;5.872;2023-03-01T06:23:31;8.57;;;6.03;;
39018;SDS011;24786;51.984;5.872;2023-03-01T06:25:59;9.80;;;6.10;;
39018;SDS011;24786;51.984;5.872;2023-03-01T06:28:25;12.00;;;6.50;;
39018;SDS011;24786;51.984;5.872;2023-03-01T06:30:51;10.80;;;6.23;;
39018;SDS011;24786;51.984;5.872;2023-03-01T06:33:18;12.50;;;5.87;;
39018;SDS011;24786;51.984;5.872;2023-03-01T06:35:49;9.03;;;5.93;;
39018;SDS011;24786;51.984;5.872;2023-03-01T06:38:15;8.83;;;6.17;;
39018;SDS011;24786;51.984;5.872;2023-03-01T06:40:43;10.00;;;6.13;;
39018;SDS011;24786;51.984;5.872;2023-03-01T06:43:08;10.93;;;6.00;;
39018;SDS011;24786;51.984;5.872;2023-03-01T06:45:34;10.80;;;6.80;;
39018;SDS011;24786;51.984;5.872;2023-03-01T06:48:04;15.13;;;6.10;;
39018;SDS011;24786;51.984;5.872;2023-03-01T06:50:30;10.63;;;6.33;;
39018;SDS011;24786;51.984;5.872;2023-03-01T06:52:59;11.60;;;5.90;;
39018;SDS011;24786;51.984;5.872;2023-03-01T06:55:25;10.73;;;5.67;;
39018;SDS011;24786;51.984;5.872;2023-03-01T06:57:57;8.60;;;5.60;;
39018;SDS011;24786;51.984;5.872;2023-03-01T07:00:24;12.07;;;5.97;;
39018;SDS011;24786;51.984;5.872;2023-03-01T07:02:50;11.73;;;6.30;;
39018;SDS011;24786;51.984;5.872;2023-03-01T07:05:16;14.90;;;6.10;;
39018;SDS011;24786;51.984;5.872;2023-03-01T07:07:42;12.17;;;7.17;;
39018;SDS011;24786;51.984;5.872;2023-03-01T07:10:08;11.73;;;6.43;;
39018;SDS011;24786;51.984;5.872;2023-03-01T07:12:34;10.33;;;6.13;;
39018;SDS011;24786;51.984;5.872;2023-03-01T07:15:00;17.97;;;7.00;;
39018;SDS011;24786;51.984;5.872;2023-03-01T07:17:25;15.33;;;7.30;;
39018;SDS011;24786;51.984;5.872;2023-03-01T07:19:51;12.70;;;6.80;;
39018;SDS011;24786;51.984;5.872;2023-03-01T07:22:16;13.80;;;6.93;;
39018;SDS011;24786;51.984;5.872;2023-03-01T07:24:42;12.93;;;7.03;;
39018;SDS011;24786;51.984;5.872;2023-03-01T07:27:08;13.90;;;6.97;;
39018;SDS011;24786;51.984;5.872;2023-03-01T07:29:34;11.67;;;7.27;;
39018;SDS011;24786;51.984;5.872;2023-03-01T07:32:01;9.83;;;6.40;;
39018;SDS011;24786;51.984;5.872;2023-03-01T07:34:27;13.83;;;7.43;;
39018;SDS011;24786;51.984;5.872;2023-03-01T07:36:53;12.93;;;6.10;;
39018;SDS011;24786;51.984;5.872;2023-03-01T07:39:18;11.13;;;6.17;;
39018;SDS011;24786;51.984;5.872;2023-03-01T07:41:44;10.30;;;6.33;;
39018;SDS011;24786;51.984;5.872;2023-03-01T07:44:09;11.97;;;6.93;;
39018;SDS011;24786;51.984;5.872;2023-03-01T07:46:37;11.33;;;5.83;;
39018;SDS011;24786;51.984;5.872;2023-03-01T07:49:04;10.20;;;6.20;;
39018;SDS011;24786;51.984;5.872;2023-03-01T07:51:30;13.57;;;6.23;;
39018;SDS011;24786;51.984;5.872;2023-03-01T07:53:55;11.70;;;6.63;;
39018;SDS011;24786;51.984;5.872;2023-03-01T07:56:21;9.13;;;5.80;;
39018;SDS011;24786;51.984;5.872;2023-03-01T07:58:47;11.33;;;7.00;;
39018;SDS011;24786;51.984;5.872;2023-03-01T08:01:14;10.03;;;6.23;;
39018;SDS011;24786;51.984;5.872;2023-03-01T08:03:41;11.80;;;6.30;;
39018;SDS011;24786;51.984;5.872;2023-03-01T08:06:09;10.83;;;6.50;;
39018;SDS011;24786;51.984;5.872;2023-03-01T08:08:35;11.07;;;6.27;;
39018;SDS011;24786;51.984;5.872;2023-03-01T08:11:02;21.63;;;8.70;;
39018;SDS011;24786;51.984;5.872;2023-03-01T08:13:30;11.07;;;6.20;;
39018;SDS011;24786;51.984;5.872;2023-03-01T08:16:02;10.33;;;5.53;;
39018;SDS011;24786;51.984;5.872;2023-03-01T08:18:33;13.00;;;6.22;;
39018;SDS011;24786;51.984;5.872;2023-03-01T08:21:03;10.03;;;5.60;;
39018;SDS011;24786;51.984;5.872;2023-03-01T08:23:28;7.80;;;5.15;;
39018;SDS011;24786;51.984;5.872;2023-03-01T08:25:54;12.47;;;6.23;;
39018;SDS011;24786;51.984;5.872;2023-03-01T08:28:27;11.98;;;6.53;;
39018;SDS011;24786;51.984;5.872;2023-03-01T08:30:52;7.93;;;5.47;;
39018;SDS011;24786;51.984;5.872;2023-03-01T08:33:18;9.98;;;6.13;;
39018;SDS011;24786;51.984;5.872;2023-03-01T08:35:43;8.88;;;5.82;;
39018;SDS011;24786;51.984;5.872;2023-03-01T08:38:09;8.45;;;5.90;;
39018;SDS011;24786;51.984;5.872;2023-03-01T08:40:34;14.38;;;6.22;;
39018;SDS011;24786;51.984;5.872;2023-03-01T08:43:00;9.38;;;5.50;;
39018;SDS011;24786;51.984;5.872;2023-03-01T08:45:25;9.48;;;5.32;;
39018;SDS011;24786;51.984;5.872;2023-03-01T08:47:54;9.52;;;5.60;;
39018;SDS011;24786;51.984;5.872;2023-03-01T08:50:19;9.57;;;5.30;;
39018;SDS011;24786;51.984;5.872;2023-03-01T08:52:45;8.30;;;5.60;;
39018;SDS011;24786;51.984;5.872;2023-03-01T08:55:11;10.60;;;6.28;;
39018;SDS011;24786;51.984;5.872;2023-03-01T08:57:36;12.65;;;5.28;;
39018;SDS011;24786;51.984;5.872;2023-03-01T09:00:02;7.22;;;5.30;;
39018;SDS011;24786;51.984;5.872;2023-03-01T09:02:28;9.65;;;5.55;;
39018;SDS011;24786;51.984;5.872;2023-03-01T09:04:53;11.50;;;5.57;;
39018;SDS011;24786;51.984;5.872;2023-03-01T09:07:19;9.85;;;5.00;;
39018;SDS011;24786;51.984;5.872;2023-03-01T09:09:44;8.70;;;5.38;;
39018;SDS011;24786;51.984;5.872;2023-03-01T09:12:10;7.75;;;4.63;;
39018;SDS011;24786;51.984;5.872;2023-03-01T09:14:36;9.52;;;5.15;;
39018;SDS011;24786;51.984;5.872;2023-03-01T09:17:03;7.20;;;4.15;;
39018;SDS011;24786;51.984;5.872;2023-03-01T09:19:29;9.25;;;5.15;;
39018;SDS011;24786;51.984;5.872;2023-03-01T09:21:55;8.07;;;5.13;;
39018;SDS011;24786;51.984;5.872;2023-03-01T09:24:23;7.43;;;4.55;;
39018;SDS011;24786;51.984;5.872;2023-03-01T09:26:50;7.93;;;4.80;;
39018;SDS011;24786;51.984;5.872;2023-03-01T09:29:19;10.63;;;4.90;;
39018;SDS011;24786;51.984;5.872;2023-03-01T09:31:44;6.18;;;4.15;;
39018;SDS011;24786;51.984;5.872;2023-03-01T09:34:10;6.90;;;4.28;;
39018;SDS011;24786;51.984;5.872;2023-03-01T09:36:36;7.60;;;4.28;;
39018;SDS011;24786;51.984;5.872;2023-03-01T09:39:02;9.13;;;5.05;;
39018;SDS011;24786;51.984;5.872;2023-03-01T09:44:20;8.73;;;5.60;;
39018;SDS011;24786;51.984;5.872;2023-03-01T09:46:58;11.50;;;5.93;;
39018;SDS011;24786;51.984;5.872;2023-03-01T09:49:25;9.88;;;6.43;;
39018;SDS011;24786;51.984;5.872;2023-03-01T09:54:31;11.43;;;6.82;;
39018;SDS011;24786;51.984;5.872;2023-03-01T09:57:04;11.40;;;6.95;;
39018;SDS011;24786;51.984;5.872;2023-03-01T10:02:54;15.82;;;8.65;;
39018;SDS011;24786;51.984;5.872;2023-03-01T10:05:50;14.48;;;8.10;;
39018;SDS011;24786;51.984;5.872;2023-03-01T10:11:01;13.57;;;8.25;;
39018;SDS011;24786;51.984;5.872;2023-03-01T10:13:43;18.60;;;7.32;;
39018;SDS011;24786;51.984;5.872;2023-03-01T10:19:15;12.20;;;6.93;;
39018;SDS011;24786;51.984;5.872;2023-03-01T10:21:47;13.02;;;7.45;;
39018;SDS011;24786;51.984;5.872;2023-03-01T10:24:16;12.45;;;7.00;;
39018;SDS011;24786;51.984;5.872;2023-03-01T10:26:54;11.38;;;6.80;;
39018;SDS011;24786;51.984;5.872;2023-03-01T10:29:34;12.43;;;7.15;;
39018;SDS011;24786;51.984;5.872;2023-03-01T10:32:14;10.25;;;6.63;;
39018;SDS011;24786;51.984;5.872;2023-03-01T10:34:39;11.32;;;6.00;;
39018;SDS011;24786;51.984;5.872;2023-03-01T10:39:34;9.20;;;5.97;;
39018;SDS011;24786;51.984;5.872;2023-03-01T10:42:01;10.70;;;6.00;;
39018;SDS011;24786;51.984;5.872;2023-03-01T10:47:18;9.35;;;5.70;;
39018;SDS011;24786;51.984;5.872;2023-03-01T10:49:52;7.47;;;5.10;;
39018;SDS011;24786;51.984;5.872;2023-03-01T10:52:21;6.72;;;5.22;;
39018;SDS011;24786;51.984;5.872;2023-03-01T10:54:58;10.77;;;5.82;;
39018;SDS011;24786;51.984;5.872;2023-03-01T11:00:29;9.80;;;5.63;;
39018;SDS011;24786;51.984;5.872;2023-03-01T11:05:24;6.85;;;4.43;;
39018;SDS011;24786;51.984;5.872;2023-03-01T11:07:58;8.30;;;5.78;;
39018;SDS011;24786;51.984;5.872;2023-03-01T11:24:23;6.63;;;4.80;;
39018;SDS011;24786;51.984;5.872;2023-03-01T11:32:08;9.50;;;5.60;;
39018;SDS011;24786;51.984;5.872;2023-03-01T11:34:47;8.93;;;5.47;;
39018;SDS011;24786;51.984;5.872;2023-03-01T11:45:19;7.30;;;5.40;;
39018;SDS011;24786;51.984;5.872;2023-03-01T11:52:59;8.20;;;5.53;;
39018;SDS011;24786;51.984;5.872;2023-03-01T12:09:32;7.78;;;5.45;;
39018;SDS011;24786;51.984;5.872;2023-03-01T12:12:06;6.32;;;4.95;;
39018;SDS011;24786;51.984;5.872;2023-03-01T12:17:55;8.07;;;5.60;;
39018;SDS011;24786;51.984;5.872;2023-03-01T12:20:32;10.48;;;6.35;;
39018;SDS011;24786;51.984;5.872;2023-03-01T12:23:07;11.60;;;6.22;;
39018;SDS011;24786;51.984;5.872;2023-03-01T12:33:53;10.52;;;5.22;;
39018;SDS011;24786;51.984;5.872;2023-03-01T12:42:17;8.13;;;5.97;;
39018;SDS011;24786;51.984;5.872;2023-03-01T12:45:23;7.30;;;5.18;;
39018;SDS011;24786;51.984;5.872;2023-03-01T12:53:33;7.90;;;5.22;;
39018;SDS011;24786;51.984;5.872;2023-03-01T13:01:51;9.77;;;6.30;;
39018;SDS011;24786;51.984;5.872;2023-03-01T13:09:51;7.93;;;4.43;;
39018;SDS011;24786;51.984;5.872;2023-03-01T13:12:52;6.43;;;4.82;;
39018;SDS011;24786;51.984;5.872;2023-03-01T13:17:47;6.93;;;4.70;;
39018;SDS011;24786;51.984;5.872;2023-03-01T13:20:15;7.03;;;4.40;;
39018;SDS011;24786;51.984;5.872;2023-03-01T13:22:43;8.40;;;5.75;;
39018;SDS011;24786;51.984;5.872;2023-03-01T13:25:15;7.63;;;4.60;;
39018;SDS011;24786;51.984;5.872;2023-03-01T13:27:44;7.43;;;5.10;;
39018;SDS011;24786;51.984;5.872;2023-03-01T13:35:52;7.82;;;4.65;;
39018;SDS011;24786;51.984;5.872;2023-03-01T13:41:13;7.57;;;5.30;;
39018;SDS011;24786;51.984;5.872;2023-03-01T13:43:41;7.75;;;4.80;;
39018;SDS011;24786;51.984;5.872;2023-03-01T13:46:16;6.80;;;4.80;;
39018;SDS011;24786;51.984;5.872;2023-03-01T13:48:47;7.63;;;4.90;;
39018;SDS011;24786;51.984;5.872;2023-03-01T13:51:16;8.63;;;5.38;;
39018;SDS011;24786;51.984;5.872;2023-03-01T13:53:49;9.80;;;5.30;;
39018;SDS011;24786;51.984;5.872;2023-03-01T13:56:17;11.15;;;5.60;;
39018;SDS011;24786;51.984;5.872;2023-03-01T13:58:50;7.28;;;5.07;;
39018;SDS011;24786;51.984;5.872;2023-03-01T14:01:24;8.52;;;5.18;;
39018;SDS011;24786;51.984;5.872;2023-03-01T14:03:54;6.22;;;4.43;;
39018;SDS011;24786;51.984;5.872;2023-03-01T14:06:24;10.40;;;4.80;;
39018;SDS011;24786;51.984;5.872;2023-03-01T14:08:59;8.85;;;4.63;;
39018;SDS011;24786;51.984;5.872;2023-03-01T14:14:59;8.13;;;5.05;;
39018;SDS011;24786;51.984;5.872;2023-03-01T14:28:46;10.30;;;5.40;;
39018;SDS011;24786;51.984;5.872;2023-03-01T14:34:02;7.72;;;5.57;;
39018;SDS011;24786;51.984;5.872;2023-03-01T14:36:32;7.30;;;5.20;;
39018;SDS011;24786;51.984;5.872;2023-03-01T14:38:58;7.93;;;5.63;;
39018;SDS011;24786;51.984;5.872;2023-03-01T14:41:29;10.43;;;5.43;;
39018;SDS011;24786;51.984;5.872;2023-03-01T14:44:04;8.75;;;5.90;;
39018;SDS011;24786;51.984;5.872;2023-03-01T14:46:34;8.02;;;5.60;;
39018;SDS011;24786;51.984;5.872;2023-03-01T14:49:25;8.43;;;5.75;;
39018;SDS011;24786;51.984;5.872;2023-03-01T14:52:05;10.77;;;5.65;;
39018;SDS011;24786;51.984;5.872;2023-03-01T14:54:37;9.38;;;5.70;;
39018;SDS011;24786;51.984;5.872;2023-03-01T14:57:15;9.60;;;5.50;;
39018;SDS011;24786;51.984;5.872;2023-03-01T14:59:43;7.60;;;5.40;;
39018;SDS011;24786;51.984;5.872;2023-03-01T15:02:11;11.27;;;4.80;;
39018;SDS011;24786;51.984;5.872;2023-03-01T15:04:42;8.90;;;4.85;;
39018;SDS011;24786;51.984;5.872;2023-03-01T15:07:11;7.35;;;5.30;;
39018;SDS011;24786;51.984;5.872;2023-03-01T15:09:39;7.25;;;4.78;;
39018;SDS011;24786;51.984;5.872;2023-03-01T15:14:53;9.35;;;5.50;;
39018;SDS011;24786;51.984;5.872;2023-03-01T15:17:37;6.93;;;4.60;;
39018;SDS011;24786;51.984;5.872;2023-03-01T15:20:05;6.22;;;4.20;;
39018;SDS011;24786;51.984;5.872;2023-03-01T15:22:43;8.70;;;5.35;;
39018;SDS011;24786;51.984;5.872;2023-03-01T15:25:20;7.45;;;5.35;;
39018;SDS011;24786;51.984;5.872;2023-03-01T15:27:49;7.07;;;4.95;;
39018;SDS011;24786;51.984;5.872;2023-03-01T15:30:21;5.43;;;4.07;;
39018;SDS011;24786;51.984;5.872;2023-03-01T15:35:49;5.70;;;4.22;;
39018;SDS011;24786;51.984;5.872;2023-03-01T15:38:29;6.85;;;3.92;;
39018;SDS011;24786;51.984;5.872;2023-03-01T15:41:03;13.68;;;4.65;;
39018;SDS011;24786;51.984;5.872;2023-03-01T15:43:46;6.10;;;4.00;;
39018;SDS011;24786;51.984;5.872;2023-03-01T15:49:03;5.68;;;4.32;;
39018;SDS011;24786;51.984;5.872;2023-03-01T15:51:36;6.00;;;3.92;;
39018;SDS011;24786;51.984;5.872;2023-03-01T15:54:08;4.78;;;3.53;;
39018;SDS011;24786;51.984;5.872;2023-03-01T15:56:44;6.60;;;4.60;;
39018;SDS011;24786;51.984;5.872;2023-03-01T15:59:10;6.78;;;4.70;;
39018;SDS011;24786;51.984;5.872;2023-03-01T16:01:38;7.13;;;4.25;;
39018;SDS011;24786;51.984;5.872;2023-03-01T16:04:03;5.60;;;3.55;;
39018;SDS011;24786;51.984;5.872;2023-03-01T16:06:29;8.05;;;4.30;;
39018;SDS011;24786;51.984;5.872;2023-03-01T16:08:55;5.68;;;4.07;;
39018;SDS011;24786;51.984;5.872;2023-03-01T16:11:21;6.88;;;3.97;;
39018;SDS011;24786;51.984;5.872;2023-03-01T16:13:46;7.60;;;4.03;;
39018;SDS011;24786;51.984;5.872;2023-03-01T16:16:13;5.70;;;3.92;;
39018;SDS011;24786;51.984;5.872;2023-03-01T16:18:41;5.40;;;4.15;;
39018;SDS011;24786;51.984;5.872;2023-03-01T16:21:21;8.55;;;3.83;;
39018;SDS011;24786;51.984;5.872;2023-03-01T16:23:50;14.30;;;5.72;;
39018;SDS011;24786;51.984;5.872;2023-03-01T16:28:56;5.22;;;3.58;;
39018;SDS011;24786;51.984;5.872;2023-03-01T16:31:25;5.50;;;3.50;;
39018;SDS011;24786;51.984;5.872;2023-03-01T16:33:56;7.10;;;3.80;;
39018;SDS011;24786;51.984;5.872;2023-03-01T16:36:48;7.40;;;3.60;;
39018;SDS011;24786;51.984;5.872;2023-03-01T16:45:49;8.90;;;3.45;;
39018;SDS011;24786;51.984;5.872;2023-03-01T16:48:17;4.45;;;3.08;;
39018;SDS011;24786;51.984;5.872;2023-03-01T16:50:59;5.72;;;3.30;;
39018;SDS011;24786;51.984;5.872;2023-03-01T16:53:33;5.88;;;3.75;;
39018;SDS011;24786;51.984;5.872;2023-03-01T16:59:13;4.95;;;3.53;;
39018;SDS011;24786;51.984;5.872;2023-03-01T17:04:42;8.48;;;3.63;;
39018;SDS011;24786;51.984;5.872;2023-03-01T17:07:10;6.57;;;3.80;;
39018;SDS011;24786;51.984;5.872;2023-03-01T17:09:36;7.13;;;3.50;;
39018;SDS011;24786;51.984;5.872;2023-03-01T17:12:03;8.75;;;3.95;;
39018;SDS011;24786;51.984;5.872;2023-03-01T17:14:44;4.88;;;3.63;;
39018;SDS011;24786;51.984;5.872;2023-03-01T17:17:10;6.22;;;2.92;;
39018;SDS011;24786;51.984;5.872;2023-03-01T17:19:36;4.57;;;2.95;;
39018;SDS011;24786;51.984;5.872;2023-03-01T17:25:06;6.18;;;3.35;;
39018;SDS011;24786;51.984;5.872;2023-03-01T17:30:01;7.00;;;3.22;;
39018;SDS011;24786;51.984;5.872;2023-03-01T17:32:26;6.07;;;3.88;;
39018;SDS011;24786;51.984;5.872;2023-03-01T17:34:52;7.20;;;3.22;;
39018;SDS011;24786;51.984;5.872;2023-03-01T17:37:17;7.20;;;4.03;;
39018;SDS011;24786;51.984;5.872;2023-03-01T17:39:43;7.43;;;4.20;;
39018;SDS011;24786;51.984;5.872;2023-03-01T17:42:09;5.22;;;3.63;;
39018;SDS011;24786;51.984;5.872;2023-03-01T17:44:34;6.50;;;3.85;;
39018;SDS011;24786;51.984;5.872;2023-03-01T17:47:00;6.90;;;4.47;;
39018;SDS011;24786;51.984;5.872;2023-03-01T17:49:27;6.35;;;3.88;;
39018;SDS011;24786;51.984;5.872;2023-03-01T17:51:53;7.38;;;4.07;;
39018;SDS011;24786;51.984;5.872;2023-03-01T17:54:18;5.65;;;4.30;;